createdAt,value
2017-10-04T00:00:18.217Z,2.85
2017-10-04T00:00:52.295Z,3.10
2017-10-04T00:01:26.909Z,3.25
2017-10-04T00:02:00.620Z,3.35
2017-10-04T00:02:34.452Z,2.95
2017-10-04T00:03:07.880Z,3.80
2017-10-04T00:03:42.530Z,3.05
2017-10-04T00:04:16.247Z,2.90
2017-10-04T00:04:49.959Z,2.97
2017-10-04T00:05:24.145Z,3.40
2017-10-04T00:05:58.984Z,3.12
2017-10-04T00:06:33.225Z,3.45
2017-10-04T00:07:06.972Z,2.58
2017-10-04T00:07:40.688Z,3.28
2017-10-04T00:08:14.393Z,2.97
2017-10-04T00:08:48.130Z,3.60
2017-10-04T00:09:22.808Z,2.90
2017-10-04T00:09:56.578Z,3.22
2017-10-04T00:10:30.281Z,3.08
2017-10-04T00:11:04.305Z,2.47
2017-10-04T00:11:38.015Z,3.37
2017-10-04T00:12:12.495Z,2.90
2017-10-04T00:12:46.212Z,2.78
2017-10-04T00:13:20.693Z,2.87
2017-10-04T00:13:54.399Z,2.70
2017-10-04T00:14:28.113Z,3.00
2017-10-04T00:15:02.711Z,2.60
2017-10-04T00:15:37.196Z,2.55
2017-10-04T00:16:11.268Z,2.65
2017-10-04T00:16:44.968Z,3.72
2017-10-04T00:17:18.685Z,2.87
2017-10-04T00:17:52.400Z,3.50
2017-10-04T00:18:26.872Z,2.70
2017-10-04T00:19:00.946Z,3.97
2017-10-04T00:19:34.649Z,3.28
2017-10-04T00:20:08.360Z,3.45
2017-10-04T00:20:42.066Z,3.42
2017-10-04T00:21:16.917Z,2.90
2017-10-04T00:21:50.625Z,3.00
2017-10-04T00:22:24.335Z,2.80
2017-10-04T00:22:58.158Z,2.80
2017-10-04T00:23:32.633Z,3.45
2017-10-04T00:24:06.342Z,3.25
2017-10-04T00:24:40.046Z,3.47
2017-10-04T00:25:14.523Z,3.25
2017-10-04T00:25:48.242Z,2.62
2017-10-04T00:26:22.214Z,3.05
2017-10-04T00:26:55.917Z,3.65
2017-10-04T00:27:29.635Z,3.05
2017-10-04T00:28:04.105Z,2.78
2017-10-04T00:28:37.765Z,2.40
2017-10-04T00:29:11.474Z,2.80
2017-10-04T00:29:45.200Z,3.20
2017-10-04T00:30:19.673Z,3.22
2017-10-04T00:30:53.394Z,2.55
2017-10-04T00:31:27.821Z,2.33
2017-10-04T00:32:02.302Z,3.22
2017-10-04T00:32:36.021Z,2.90
2017-10-04T00:33:09.744Z,2.55
2017-10-04T00:33:43.108Z,3.10
2017-10-04T00:34:16.806Z,2.45
2017-10-04T00:34:50.519Z,3.08
2017-10-04T00:35:24.240Z,3.22
2017-10-04T00:35:57.956Z,2.25
2017-10-04T00:36:32.718Z,2.90
2017-10-04T00:37:06.424Z,2.92
2017-10-04T00:37:40.130Z,2.78
2017-10-04T00:38:14.592Z,2.83
2017-10-04T00:39:26.218Z,2.85
2017-10-04T00:39:59.940Z,2.70
2017-10-04T00:40:33.296Z,2.90
2017-10-04T00:41:07.779Z,2.55
2017-10-04T00:41:41.510Z,3.03
2017-10-04T00:42:15.981Z,2.75
2017-10-04T00:42:52.662Z,3.22
2017-10-04T00:43:27.205Z,2.72
2017-10-04T00:44:00.913Z,2.60
2017-10-04T00:44:34.626Z,2.35
2017-10-04T00:45:08.338Z,3.10
2017-10-04T00:45:42.047Z,2.92
2017-10-04T00:46:16.515Z,2.10
2017-10-04T00:46:50.249Z,2.65
2017-10-04T00:47:24.721Z,2.50
2017-10-04T00:47:58.435Z,2.35
2017-10-04T00:48:32.900Z,2.90
2017-10-04T00:49:06.627Z,3.03
2017-10-04T00:49:41.122Z,2.42
2017-10-04T00:50:14.830Z,2.50
2017-10-04T00:50:49.301Z,3.20
2017-10-04T00:51:23.023Z,2.80
2017-10-04T00:51:57.029Z,2.72
2017-10-04T00:52:31.504Z,2.83
2017-10-04T00:53:05.221Z,2.90
2017-10-04T00:53:39.708Z,2.40
2017-10-04T00:54:13.418Z,2.60
2017-10-04T00:54:47.144Z,2.35
2017-10-04T00:55:20.516Z,3.00
2017-10-04T00:55:53.536Z,2.65
2017-10-04T00:56:26.548Z,2.80
2017-10-04T00:57:00.652Z,2.35
2017-10-04T00:57:34.428Z,2.50
2017-10-04T00:58:07.460Z,2.85
2017-10-04T00:58:40.465Z,2.28
2017-10-04T00:59:13.820Z,3.25
2017-10-04T00:59:47.190Z,2.60
2017-10-04T01:00:20.558Z,2.67
2017-10-04T01:00:53.582Z,3.50
2017-10-04T01:01:27.293Z,2.50
2017-10-04T01:02:01.727Z,3.30
2017-10-04T01:02:35.189Z,2.45
2017-10-04T01:03:09.717Z,2.72
2017-10-04T01:03:43.081Z,2.30
2017-10-04T01:04:17.550Z,2.40
2017-10-04T01:04:51.255Z,2.60
2017-10-04T01:05:24.956Z,3.15
2017-10-04T01:05:58.644Z,2.72
2017-10-04T01:06:32.347Z,2.55
2017-10-04T01:07:07.181Z,2.85
2017-10-04T01:07:40.899Z,2.35
2017-10-04T01:08:14.267Z,2.87
2017-10-04T01:08:47.977Z,3.10
2017-10-04T01:09:21.345Z,2.67
2017-10-04T01:09:55.101Z,2.37
2017-10-04T01:10:28.893Z,2.60
2017-10-04T01:11:03.353Z,2.92
2017-10-04T01:11:37.053Z,2.90
2017-10-04T01:12:10.792Z,2.30
2017-10-04T01:12:44.915Z,2.40
2017-10-04T01:13:18.709Z,2.70
2017-10-04T01:13:52.079Z,2.40
2017-10-04T01:14:25.433Z,2.80
2017-10-04T01:14:58.955Z,3.05
2017-10-04T01:15:31.964Z,2.75
2017-10-04T01:16:05.328Z,2.50
2017-10-04T01:16:39.032Z,2.83
2017-10-04T01:17:13.091Z,2.40
2017-10-04T01:17:46.801Z,2.55
2017-10-04T01:18:20.555Z,2.50
2017-10-04T01:18:55.062Z,2.62
2017-10-04T01:19:28.849Z,2.90
2017-10-04T01:20:02.646Z,3.62
2017-10-04T01:20:36.772Z,2.40
2017-10-04T01:21:10.129Z,2.55
2017-10-04T01:21:43.917Z,2.95
2017-10-04T01:22:18.752Z,2.80
2017-10-04T01:22:52.121Z,2.28
2017-10-04T01:23:25.900Z,3.10
2017-10-04T01:23:59.599Z,2.97
2017-10-04T01:24:34.081Z,2.60
2017-10-04T01:25:07.097Z,2.53
2017-10-04T01:25:41.573Z,2.78
2017-10-04T01:26:14.925Z,2.17
2017-10-04T01:26:48.641Z,2.80
2017-10-04T01:27:22.676Z,2.90
2017-10-04T01:27:56.970Z,3.40
2017-10-04T01:28:31.456Z,2.62
2017-10-04T01:29:05.168Z,2.50
2017-10-04T01:29:39.632Z,2.70
2017-10-04T01:30:13.000Z,3.08
2017-10-04T01:30:46.704Z,3.12
2017-10-04T01:31:20.443Z,2.97
2017-10-04T01:31:54.947Z,2.78
2017-10-04T01:32:29.797Z,2.67
2017-10-04T01:33:03.507Z,2.65
2017-10-04T01:33:37.225Z,2.75
2017-10-04T01:34:10.933Z,3.05
2017-10-04T01:34:44.629Z,2.60
2017-10-04T01:35:19.096Z,3.53
2017-10-04T01:35:52.816Z,2.72
2017-10-04T01:36:26.533Z,3.25
2017-10-04T01:37:00.235Z,2.80
2017-10-04T01:37:34.314Z,3.20
2017-10-04T01:38:08.779Z,2.55
2017-10-04T01:38:42.489Z,3.42
2017-10-04T01:39:16.204Z,2.83
2017-10-04T01:39:50.668Z,2.78
2017-10-04T01:40:24.370Z,2.60
2017-10-04T01:40:58.064Z,2.97
2017-10-04T01:41:31.768Z,2.70
2017-10-04T01:42:05.510Z,2.67
2017-10-04T01:42:39.580Z,2.83
2017-10-04T01:43:13.285Z,3.15
2017-10-04T01:43:46.995Z,3.15
2017-10-04T01:44:20.705Z,3.25
2017-10-04T01:44:54.418Z,2.25
2017-10-04T01:45:28.885Z,3.35
2017-10-04T01:46:02.593Z,2.83
2017-10-04T01:46:36.304Z,3.55
2017-10-04T01:47:10.788Z,3.20
2017-10-04T01:47:44.828Z,2.62
2017-10-04T01:48:19.322Z,3.30
2017-10-04T01:48:53.808Z,2.65
2017-10-04T01:49:27.525Z,2.33
2017-10-04T01:50:02.003Z,2.67
2017-10-04T01:50:35.705Z,2.42
2017-10-04T01:51:09.435Z,3.20
2017-10-04T01:51:43.139Z,2.28
2017-10-04T01:52:16.656Z,2.75
2017-10-04T01:52:50.701Z,2.28
2017-10-04T01:53:25.164Z,3.00
2017-10-04T01:53:58.867Z,2.60
2017-10-04T01:54:32.563Z,3.00
2017-10-04T01:55:06.266Z,2.80
2017-10-04T01:55:40.745Z,2.78
2017-10-04T01:56:14.452Z,2.90
2017-10-04T01:56:48.173Z,2.62
2017-10-04T01:57:22.309Z,2.70
2017-10-04T01:57:56.304Z,3.10
2017-10-04T01:58:30.149Z,2.80
2017-10-04T01:59:04.619Z,2.72
2017-10-04T01:59:38.328Z,2.90
2017-10-04T02:00:12.037Z,4.00
2017-10-04T02:00:46.542Z,3.10
2017-10-04T02:01:20.540Z,2.62
2017-10-04T02:01:55.014Z,2.95
2017-10-04T02:02:28.724Z,2.58
2017-10-04T02:03:02.465Z,2.72
2017-10-04T02:03:36.204Z,3.17
2017-10-04T02:04:09.912Z,3.53
2017-10-04T02:04:44.385Z,3.03
2017-10-04T02:05:18.105Z,2.87
2017-10-04T02:05:52.585Z,2.60
2017-10-04T02:06:26.293Z,3.03
2017-10-04T02:07:00.000Z,3.47
2017-10-04T02:07:34.473Z,3.10
2017-10-04T02:08:08.524Z,2.83
2017-10-04T02:08:42.985Z,3.22
2017-10-04T02:09:16.353Z,3.58
2017-10-04T02:09:50.064Z,2.78
2017-10-04T02:10:23.793Z,3.12
2017-10-04T02:10:57.497Z,2.30
2017-10-04T02:11:31.212Z,3.45
2017-10-04T02:12:04.640Z,2.90
2017-10-04T02:12:39.137Z,2.83
2017-10-04T02:13:13.885Z,2.85
2017-10-04T02:13:47.597Z,2.90
2017-10-04T02:14:21.301Z,3.30
2017-10-04T02:14:55.030Z,2.85
2017-10-04T02:15:28.745Z,3.00
2017-10-04T02:16:02.450Z,2.47
2017-10-04T02:16:36.160Z,2.55
2017-10-04T02:17:09.856Z,2.80
2017-10-04T02:17:43.559Z,3.10
2017-10-04T02:18:17.600Z,3.12
2017-10-04T02:18:52.098Z,3.67
2017-10-04T02:19:26.568Z,3.00
2017-10-04T02:20:00.277Z,3.15
2017-10-04T02:20:33.968Z,2.35
2017-10-04T02:21:07.680Z,2.87
2017-10-04T02:21:42.183Z,4.10
2017-10-04T02:22:16.648Z,3.47
2017-10-04T02:22:50.013Z,3.45
2017-10-04T02:23:24.084Z,3.05
2017-10-04T02:23:57.790Z,2.72
2017-10-04T02:24:31.505Z,3.10
2017-10-04T02:25:05.222Z,2.60
2017-10-04T02:25:38.926Z,2.40
2017-10-04T02:26:12.628Z,3.00
2017-10-04T02:26:47.094Z,3.10
2017-10-04T02:27:20.785Z,2.87
2017-10-04T02:27:54.496Z,2.87
2017-10-04T02:28:28.515Z,3.03
2017-10-04T02:29:02.981Z,2.90
2017-10-04T02:29:36.685Z,2.78
2017-10-04T02:30:10.392Z,2.92
2017-10-04T02:30:44.856Z,2.80
2017-10-04T02:31:18.564Z,3.72
2017-10-04T02:31:52.270Z,4.10
2017-10-04T02:32:25.985Z,3.05
2017-10-04T02:33:00.465Z,3.35
2017-10-04T02:33:34.456Z,3.15
2017-10-04T02:34:08.156Z,2.72
2017-10-04T02:34:41.847Z,2.92
2017-10-04T02:35:15.556Z,3.17
2017-10-04T02:35:50.046Z,3.10
2017-10-04T02:36:23.754Z,3.72
2017-10-04T02:36:58.241Z,4.05
2017-10-04T02:37:31.954Z,3.20
2017-10-04T02:38:06.437Z,2.75
2017-10-04T02:38:40.469Z,3.45
2017-10-04T02:39:14.940Z,3.20
2017-10-04T02:39:48.641Z,3.20
2017-10-04T02:40:22.349Z,3.17
2017-10-04T02:40:56.832Z,3.83
2017-10-04T02:41:30.652Z,3.85
2017-10-04T02:42:05.118Z,4.05
2017-10-04T02:42:38.817Z,2.80
2017-10-04T02:43:12.520Z,4.00
2017-10-04T02:43:46.540Z,3.10
2017-10-04T02:44:21.045Z,3.42
2017-10-04T02:44:55.535Z,3.78
2017-10-04T02:45:29.248Z,3.55
2017-10-04T02:46:03.709Z,3.55
2017-10-04T02:46:37.457Z,3.60
2017-10-04T02:47:11.159Z,4.07
2017-10-04T02:47:44.889Z,4.07
2017-10-04T02:48:18.593Z,3.25
2017-10-04T02:48:53.438Z,3.70
2017-10-04T02:49:27.921Z,3.05
2017-10-04T02:50:01.640Z,3.85
2017-10-04T02:50:35.417Z,3.80
2017-10-04T02:51:09.905Z,3.67
2017-10-04T02:51:43.660Z,3.40
2017-10-04T02:52:17.371Z,3.55
2017-10-04T02:52:51.097Z,3.55
2017-10-04T02:53:25.600Z,3.40
2017-10-04T02:54:00.441Z,3.58
2017-10-04T02:54:34.145Z,3.60
2017-10-04T02:55:07.854Z,3.22
2017-10-04T02:55:41.577Z,3.72
2017-10-04T02:56:15.297Z,3.62
2017-10-04T02:56:49.013Z,3.97
2017-10-04T02:57:22.767Z,4.22
2017-10-04T02:57:57.240Z,3.35
2017-10-04T02:58:30.985Z,3.22
2017-10-04T02:59:05.213Z,3.30
2017-10-04T02:59:38.916Z,3.67
2017-10-04T03:00:12.632Z,4.65
2017-10-04T03:00:46.328Z,3.60
2017-10-04T03:01:20.030Z,4.45
2017-10-04T03:01:54.504Z,3.53
2017-10-04T03:02:28.209Z,3.50
2017-10-04T03:03:01.932Z,4.65
2017-10-04T03:03:35.656Z,4.07
2017-10-04T03:04:09.389Z,3.97
2017-10-04T03:04:43.124Z,3.95
2017-10-04T03:05:16.832Z,4.25
2017-10-04T03:05:50.544Z,4.05
2017-10-04T03:06:24.243Z,4.10
2017-10-04T03:06:57.952Z,3.85
2017-10-04T03:07:32.431Z,3.60
2017-10-04T03:08:06.933Z,4.62
2017-10-04T03:08:40.308Z,4.85
2017-10-04T03:09:14.044Z,4.45
2017-10-04T03:09:48.516Z,4.35
2017-10-04T03:10:22.227Z,4.45
2017-10-04T03:10:55.591Z,4.12
2017-10-04T03:11:29.302Z,4.22
2017-10-04T03:12:03.004Z,4.05
2017-10-04T03:12:37.472Z,4.57
2017-10-04T03:13:11.171Z,4.20
2017-10-04T03:13:44.892Z,5.20
2017-10-04T03:14:19.812Z,4.10
2017-10-04T03:14:54.290Z,4.30
2017-10-04T03:15:28.011Z,5.28
2017-10-04T03:16:02.486Z,4.20
2017-10-04T03:16:36.200Z,3.85
2017-10-04T03:17:09.916Z,5.05
2017-10-04T03:17:43.692Z,4.30
2017-10-04T03:18:18.172Z,5.25
2017-10-04T03:18:51.869Z,4.85
2017-10-04T03:19:25.900Z,4.47
2017-10-04T03:20:00.387Z,4.62
2017-10-04T03:20:34.112Z,4.40
2017-10-04T03:21:07.828Z,4.20
2017-10-04T03:21:41.540Z,4.40
2017-10-04T03:22:15.267Z,4.20
2017-10-04T03:22:49.744Z,4.57
2017-10-04T03:23:23.457Z,4.85
2017-10-04T03:23:57.934Z,4.20
2017-10-04T03:24:31.978Z,4.95
2017-10-04T03:25:06.464Z,4.53
2017-10-04T03:25:40.187Z,4.10
2017-10-04T03:26:13.896Z,4.37
2017-10-04T03:26:47.605Z,5.05
2017-10-04T03:27:21.321Z,3.85
2017-10-04T03:27:55.012Z,4.12
2017-10-04T03:28:28.709Z,4.65
2017-10-04T03:29:02.427Z,4.45
2017-10-04T03:29:36.514Z,4.40
2017-10-04T03:30:10.988Z,3.95
2017-10-04T03:30:44.697Z,4.32
2017-10-04T03:31:18.401Z,4.18
2017-10-04T03:31:52.876Z,5.07
2017-10-04T03:32:26.587Z,3.87
2017-10-04T03:33:01.072Z,4.60
2017-10-04T03:33:34.809Z,4.75
2017-10-04T03:34:08.533Z,3.90
2017-10-04T03:34:42.594Z,4.25
2017-10-04T03:35:16.322Z,3.83
2017-10-04T03:35:50.025Z,4.40
2017-10-04T03:36:23.730Z,4.05
2017-10-04T03:36:57.436Z,4.00
2017-10-04T03:37:31.235Z,4.65
2017-10-04T03:38:05.705Z,3.83
2017-10-04T03:38:39.427Z,4.25
2017-10-04T03:39:13.910Z,4.32
2017-10-04T03:39:47.959Z,4.65
2017-10-04T03:40:21.672Z,4.03
2017-10-04T03:40:55.381Z,4.28
2017-10-04T03:41:29.084Z,3.95
2017-10-04T03:42:02.788Z,3.95
2017-10-04T03:42:36.161Z,4.22
2017-10-04T03:43:09.875Z,3.90
2017-10-04T03:43:44.338Z,3.42
2017-10-04T03:44:18.072Z,4.45
2017-10-04T03:44:52.889Z,3.72
2017-10-04T03:45:27.377Z,3.85
2017-10-04T03:46:01.084Z,3.90
2017-10-04T03:46:34.797Z,3.72
2017-10-04T03:47:08.514Z,3.70
2017-10-04T03:47:42.231Z,3.45
2017-10-04T03:48:15.959Z,4.05
2017-10-04T03:48:50.441Z,4.05
2017-10-04T03:49:24.153Z,4.10
2017-10-04T03:49:58.905Z,3.55
2017-10-04T03:50:32.617Z,4.43
2017-10-04T03:51:06.349Z,4.68
2017-10-04T03:51:40.821Z,3.85
2017-10-04T03:52:14.545Z,4.05
2017-10-04T03:52:49.020Z,3.92
2017-10-04T03:53:22.723Z,4.03
2017-10-04T03:53:56.884Z,4.70
2017-10-04T03:54:30.594Z,4.00
2017-10-04T03:55:04.639Z,3.80
2017-10-04T03:55:39.116Z,3.80
2017-10-04T03:56:12.826Z,4.20
2017-10-04T03:56:47.288Z,3.85
2017-10-04T03:57:21.005Z,3.70
2017-10-04T03:57:54.712Z,3.78
2017-10-04T03:58:28.417Z,3.08
2017-10-04T03:59:02.894Z,3.75
2017-10-04T03:59:36.596Z,3.90
2017-10-04T04:00:10.507Z,3.67
2017-10-04T04:00:44.957Z,3.50
2017-10-04T04:01:18.660Z,3.70
2017-10-04T04:01:52.372Z,3.95
2017-10-04T04:02:26.085Z,3.80
2017-10-04T04:03:00.551Z,3.97
2017-10-04T04:03:34.261Z,3.25
2017-10-04T04:04:07.968Z,3.80
2017-10-04T04:04:42.434Z,3.45
2017-10-04T04:05:16.499Z,3.90
2017-10-04T04:05:50.209Z,3.85
2017-10-04T04:06:23.907Z,3.37
2017-10-04T04:06:57.612Z,3.10
2017-10-04T04:07:31.309Z,4.10
2017-10-04T04:08:04.826Z,3.20
2017-10-04T04:08:39.310Z,4.07
2017-10-04T04:09:13.028Z,3.40
2017-10-04T04:09:47.511Z,2.60
2017-10-04T04:10:21.511Z,3.37
2017-10-04T04:10:54.876Z,3.85
2017-10-04T04:11:28.254Z,3.17
2017-10-04T04:12:01.972Z,4.05
2017-10-04T04:12:35.778Z,2.80
2017-10-04T04:13:10.245Z,3.25
2017-10-04T04:13:44.852Z,3.20
2017-10-04T04:14:18.564Z,3.05
2017-10-04T04:14:52.278Z,3.00
2017-10-04T04:15:27.041Z,3.95
2017-10-04T04:16:00.740Z,4.70
2017-10-04T04:16:34.262Z,3.85
2017-10-04T04:17:08.676Z,3.53
2017-10-04T04:17:43.145Z,3.70
2017-10-04T04:18:16.836Z,3.37
2017-10-04T04:18:50.532Z,3.65
2017-10-04T04:19:24.247Z,3.45
2017-10-04T04:19:59.493Z,3.40
2017-10-04T04:20:34.295Z,3.45
2017-10-04T04:21:08.764Z,2.90
2017-10-04T04:21:42.452Z,3.30
2017-10-04T04:22:16.152Z,3.10
2017-10-04T04:22:49.877Z,3.25
2017-10-04T04:23:24.341Z,3.15
2017-10-04T04:23:58.038Z,3.65
2017-10-04T04:24:31.736Z,3.47
2017-10-04T04:25:05.441Z,3.58
2017-10-04T04:25:40.213Z,3.83
2017-10-04T04:26:13.921Z,3.15
2017-10-04T04:26:47.634Z,3.20
2017-10-04T04:27:21.338Z,3.95
2017-10-04T04:27:55.814Z,3.65
2017-10-04T04:28:29.353Z,3.83
2017-10-04T04:29:02.888Z,3.10
2017-10-04T04:29:36.610Z,4.00
2017-10-04T04:30:11.097Z,3.53
2017-10-04T04:30:44.825Z,3.60
2017-10-04T04:31:18.540Z,4.10
2017-10-04T04:31:52.248Z,3.58
2017-10-04T04:32:25.952Z,3.22
2017-10-04T04:32:59.772Z,3.10
2017-10-04T04:33:34.248Z,2.83
2017-10-04T04:34:07.970Z,4.05
2017-10-04T04:34:42.448Z,3.75
2017-10-04T04:35:16.164Z,3.70
2017-10-04T04:35:50.276Z,3.30
2017-10-04T04:36:24.784Z,3.47
2017-10-04T04:36:59.264Z,3.35
2017-10-04T04:37:32.972Z,3.50
2017-10-04T04:38:18.720Z,3.25
2017-10-04T04:39:00.428Z,3.37
2017-10-04T04:39:34.947Z,2.55
2017-10-04T04:40:09.424Z,2.97
2017-10-04T04:40:43.134Z,4.15
2017-10-04T04:41:17.972Z,3.30
2017-10-04T04:41:51.691Z,2.90
2017-10-04T04:42:25.430Z,3.00
2017-10-04T04:42:59.143Z,3.35
2017-10-04T04:43:32.852Z,3.62
2017-10-04T04:44:06.549Z,3.00
2017-10-04T04:44:40.255Z,2.80
2017-10-04T04:45:13.614Z,3.05
2017-10-04T04:45:47.747Z,2.75
2017-10-04T04:46:21.880Z,3.40
2017-10-04T04:46:56.372Z,3.12
2017-10-04T04:47:30.095Z,2.85
2017-10-04T04:48:03.812Z,3.08
2017-10-04T04:48:37.526Z,3.10
2017-10-04T04:49:12.784Z,3.25
2017-10-04T04:49:47.293Z,3.53
2017-10-04T04:50:21.780Z,3.65
2017-10-04T04:50:55.488Z,3.40
2017-10-04T04:51:30.325Z,2.72
2017-10-04T04:52:04.042Z,3.30
2017-10-04T04:52:37.757Z,2.78
2017-10-04T04:53:11.481Z,3.15
2017-10-04T04:53:45.965Z,3.62
2017-10-04T04:54:19.680Z,3.78
2017-10-04T04:54:54.165Z,3.17
2017-10-04T04:55:28.649Z,2.70
2017-10-04T04:56:02.717Z,3.33
2017-10-04T04:56:36.814Z,3.05
2017-10-04T04:57:11.291Z,3.62
2017-10-04T04:57:44.800Z,2.55
2017-10-04T04:58:19.269Z,2.78
2017-10-04T04:58:52.975Z,3.10
2017-10-04T04:59:26.680Z,3.03
2017-10-04T05:00:00.958Z,3.30
2017-10-04T05:00:34.317Z,3.00
2017-10-04T05:01:08.032Z,3.25
2017-10-04T05:01:42.055Z,2.92
2017-10-04T05:02:16.532Z,2.65
2017-10-04T05:02:50.052Z,2.90
2017-10-04T05:03:24.518Z,2.80
2017-10-04T05:03:58.224Z,3.05
2017-10-04T05:04:31.932Z,2.80
2017-10-04T05:05:05.626Z,2.65
2017-10-04T05:05:40.176Z,2.87
2017-10-04T05:06:13.876Z,3.20
2017-10-04T05:06:47.932Z,3.03
2017-10-04T05:07:22.412Z,2.65
2017-10-04T05:07:56.226Z,3.35
2017-10-04T05:08:30.719Z,3.67
2017-10-04T05:09:03.545Z,3.40
2017-10-04T05:09:37.239Z,3.37
2017-10-04T05:10:10.944Z,3.65
2017-10-04T05:10:44.650Z,2.97
2017-10-04T05:11:18.362Z,3.17
2017-10-04T05:11:53.187Z,3.10
2017-10-04T05:12:27.654Z,3.47
2017-10-04T05:13:01.364Z,3.15
2017-10-04T05:13:35.066Z,3.47
2017-10-04T05:14:09.528Z,3.70
2017-10-04T05:14:43.241Z,3.78
2017-10-04T05:15:16.956Z,3.58
2017-10-04T05:15:50.650Z,3.47
2017-10-04T05:16:25.129Z,3.60
2017-10-04T05:16:59.156Z,3.12
2017-10-04T05:17:33.629Z,3.75
2017-10-04T05:18:07.328Z,3.05
2017-10-04T05:18:41.029Z,3.60
2017-10-04T05:19:14.732Z,3.53
2017-10-04T05:19:49.248Z,3.40
2017-10-04T05:20:23.730Z,3.22
2017-10-04T05:20:57.444Z,3.70
2017-10-04T05:21:31.908Z,3.70
2017-10-04T05:22:05.932Z,3.60
2017-10-04T05:22:40.399Z,3.70
2017-10-04T05:23:14.120Z,3.33
2017-10-04T05:23:47.822Z,3.60
2017-10-04T05:24:21.529Z,3.35
2017-10-04T05:24:56.008Z,2.87
2017-10-04T05:25:29.720Z,3.35
2017-10-04T05:26:03.432Z,4.03
2017-10-04T05:26:37.138Z,3.90
2017-10-04T05:27:11.210Z,4.72
2017-10-04T05:27:45.682Z,3.10
2017-10-04T05:28:19.386Z,3.72
2017-10-04T05:28:53.196Z,3.50
2017-10-04T05:29:27.682Z,3.40
2017-10-04T05:30:01.393Z,4.12
2017-10-04T05:30:35.862Z,3.45
2017-10-04T05:31:09.564Z,3.70
2017-10-04T05:31:43.259Z,4.18
2017-10-04T05:32:17.287Z,3.97
2017-10-04T05:32:51.788Z,4.12
2017-10-04T05:33:26.256Z,3.85
2017-10-04T05:33:59.972Z,4.32
2017-10-04T05:34:33.677Z,4.35
2017-10-04T05:35:08.144Z,3.92
2017-10-04T05:35:41.855Z,4.15
2017-10-04T05:36:15.669Z,4.55
2017-10-04T05:36:50.149Z,3.70
2017-10-04T05:37:24.184Z,4.35
2017-10-04T05:37:58.667Z,4.28
2017-10-04T05:38:32.353Z,3.80
2017-10-04T05:39:05.705Z,4.40
2017-10-04T05:39:39.432Z,4.20
2017-10-04T05:40:13.135Z,4.50
2017-10-04T05:40:47.617Z,4.28
2017-10-04T05:41:21.316Z,4.28
2017-10-04T05:41:55.038Z,4.50
2017-10-04T05:42:29.878Z,4.50
2017-10-04T05:43:03.617Z,4.55
2017-10-04T05:43:37.324Z,4.10
2017-10-04T05:44:11.797Z,4.80
2017-10-04T05:44:45.504Z,4.65
2017-10-04T05:45:19.224Z,3.55
2017-10-04T05:45:53.715Z,4.32
2017-10-04T05:46:28.190Z,4.68
2017-10-04T05:47:01.910Z,4.20
2017-10-04T05:47:35.941Z,5.40
2017-10-04T05:48:09.656Z,4.55
2017-10-04T05:48:43.375Z,4.30
2017-10-04T05:49:17.091Z,4.32
2017-10-04T05:49:51.585Z,5.03
2017-10-04T05:50:25.303Z,4.53
2017-10-04T05:50:59.030Z,3.95
2017-10-04T05:51:32.746Z,5.65
2017-10-04T05:52:06.457Z,4.65
2017-10-04T05:52:41.257Z,4.30
2017-10-04T05:53:14.971Z,4.50
2017-10-04T05:53:49.449Z,4.95
2017-10-04T05:54:23.154Z,4.35
2017-10-04T05:54:56.861Z,4.60
2017-10-04T05:55:31.341Z,4.57
2017-10-04T05:56:05.084Z,4.20
2017-10-04T05:56:38.811Z,4.68
2017-10-04T05:57:12.524Z,4.55
2017-10-04T05:57:46.549Z,4.65
2017-10-04T05:58:20.264Z,4.40
2017-10-04T05:58:53.995Z,5.18
2017-10-04T05:59:27.708Z,4.40
2017-10-04T06:00:02.180Z,4.20
2017-10-04T06:00:35.568Z,5.75
2017-10-04T06:01:09.301Z,4.50
2017-10-04T06:01:43.774Z,4.72
2017-10-04T06:02:17.484Z,4.35
2017-10-04T06:02:52.330Z,4.60
2017-10-04T06:03:26.045Z,4.80
2017-10-04T06:03:59.755Z,5.03
2017-10-04T06:04:33.473Z,4.82
2017-10-04T06:05:07.978Z,4.70
2017-10-04T06:05:42.504Z,5.03
2017-10-04T06:06:16.229Z,4.90
2017-10-04T06:06:49.956Z,4.68
2017-10-04T06:07:23.664Z,4.75
2017-10-04T06:07:58.524Z,4.80
2017-10-04T06:08:32.240Z,4.65
2017-10-04T06:09:05.271Z,4.72
2017-10-04T06:09:39.009Z,4.70
2017-10-04T06:10:12.713Z,3.95
2017-10-04T06:10:47.231Z,4.85
2017-10-04T06:11:21.720Z,5.25
2017-10-04T06:11:55.681Z,5.07
2017-10-04T06:12:29.396Z,4.93
2017-10-04T06:13:03.446Z,4.43
2017-10-04T06:13:37.155Z,4.35
2017-10-04T06:14:10.873Z,5.45
2017-10-04T06:14:44.581Z,4.82
2017-10-04T06:15:18.307Z,4.72
2017-10-04T06:15:52.028Z,4.87
2017-10-04T06:16:25.564Z,4.45
2017-10-04T06:17:00.044Z,5.03
2017-10-04T06:17:33.767Z,4.40
2017-10-04T06:18:08.603Z,5.07
2017-10-04T06:18:42.317Z,4.90
2017-10-04T06:19:16.032Z,5.60
2017-10-04T06:19:49.756Z,4.60
2017-10-04T06:20:24.251Z,4.28
2017-10-04T06:20:57.964Z,4.70
2017-10-04T06:21:32.453Z,4.03
2017-10-04T06:22:06.165Z,4.28
2017-10-04T06:22:40.649Z,4.65
2017-10-04T06:23:14.647Z,3.60
2017-10-04T06:23:49.864Z,4.20
2017-10-04T06:24:23.585Z,4.80
2017-10-04T06:24:58.056Z,4.60
2017-10-04T06:25:31.573Z,4.70
2017-10-04T06:26:06.047Z,5.47
2017-10-04T06:26:39.781Z,5.68
2017-10-04T06:27:13.484Z,5.62
2017-10-04T06:27:47.189Z,4.70
2017-10-04T06:28:21.213Z,4.45
2017-10-04T06:28:54.932Z,4.90
2017-10-04T06:29:28.303Z,4.28
2017-10-04T06:30:02.017Z,4.78
2017-10-04T06:30:35.420Z,5.15
2017-10-04T06:31:09.142Z,4.95
2017-10-04T06:31:42.517Z,4.68
2017-10-04T06:32:16.231Z,4.60
2017-10-04T06:32:49.592Z,3.83
2017-10-04T06:33:23.340Z,4.95
2017-10-04T06:33:57.813Z,4.55
2017-10-04T06:34:31.529Z,4.95
2017-10-04T06:35:05.228Z,4.15
2017-10-04T06:35:39.708Z,4.60
2017-10-04T06:36:13.412Z,4.20
2017-10-04T06:36:47.892Z,5.03
2017-10-04T06:37:21.590Z,4.68
2017-10-04T06:37:55.307Z,4.65
2017-10-04T06:38:30.131Z,4.60
2017-10-04T06:39:03.742Z,5.15
2017-10-04T06:39:37.689Z,4.85
2017-10-04T06:40:11.396Z,4.32
2017-10-04T06:40:45.863Z,4.85
2017-10-04T06:41:19.575Z,3.70
2017-10-04T06:41:53.284Z,4.50
2017-10-04T06:42:26.636Z,4.80
2017-10-04T06:43:00.343Z,4.30
2017-10-04T06:43:34.561Z,5.15
2017-10-04T06:44:09.040Z,4.28
2017-10-04T06:44:42.758Z,4.50
2017-10-04T06:45:17.221Z,4.65
2017-10-04T06:45:50.939Z,5.80
2017-10-04T06:46:24.642Z,4.37
2017-10-04T06:46:58.344Z,4.22
2017-10-04T06:47:32.826Z,4.35
2017-10-04T06:48:06.524Z,3.85
2017-10-04T06:48:40.412Z,4.37
2017-10-04T06:49:14.124Z,4.15
2017-10-04T06:49:48.593Z,4.25
2017-10-04T06:50:22.304Z,4.95
2017-10-04T06:50:56.848Z,4.30
2017-10-04T06:51:31.310Z,4.97
2017-10-04T06:52:05.023Z,4.78
2017-10-04T06:52:39.510Z,5.00
2017-10-04T06:53:13.233Z,4.97
2017-10-04T06:53:47.731Z,4.75
2017-10-04T06:54:22.216Z,4.80
2017-10-04T06:54:55.919Z,4.68
2017-10-04T06:55:29.640Z,5.62
2017-10-04T06:56:04.104Z,4.20
2017-10-04T06:56:37.807Z,5.10
2017-10-04T06:57:11.616Z,4.60
2017-10-04T06:57:46.097Z,4.78
2017-10-04T06:58:19.800Z,4.65
2017-10-04T06:58:53.517Z,5.22
2017-10-04T06:59:27.988Z,4.05
2017-10-04T07:00:01.349Z,4.68
2017-10-04T07:00:35.050Z,4.43
2017-10-04T07:01:08.761Z,3.80
2017-10-04T07:01:42.462Z,4.35
2017-10-04T07:02:16.181Z,3.60
2017-10-04T07:02:49.884Z,4.65
2017-10-04T07:03:23.591Z,3.78
2017-10-04T07:03:57.629Z,3.35
2017-10-04T07:04:31.791Z,4.10
2017-10-04T07:05:05.526Z,3.83
2017-10-04T07:05:40.005Z,4.35
2017-10-04T07:06:14.113Z,3.83
2017-10-04T07:06:48.579Z,4.65
2017-10-04T07:07:22.290Z,3.70
2017-10-04T07:07:55.987Z,3.97
2017-10-04T07:08:29.695Z,4.00
2017-10-04T07:09:03.620Z,4.10
2017-10-04T07:09:38.080Z,3.85
2017-10-04T07:10:11.646Z,4.05
2017-10-04T07:10:45.409Z,4.10
2017-10-04T07:11:19.890Z,4.00
2017-10-04T07:11:53.584Z,4.47
2017-10-04T07:12:27.288Z,3.90
2017-10-04T07:13:01.754Z,3.25
2017-10-04T07:13:35.493Z,4.40
2017-10-04T07:14:10.288Z,4.10
2017-10-04T07:14:43.993Z,4.10
2017-10-04T07:15:18.120Z,3.80
2017-10-04T07:15:51.475Z,4.15
2017-10-04T07:16:25.955Z,4.28
2017-10-04T07:16:59.659Z,4.30
2017-10-04T07:17:33.486Z,4.60
2017-10-04T07:18:07.208Z,3.33
2017-10-04T07:18:41.002Z,4.30
2017-10-04T07:19:15.063Z,4.45
2017-10-04T07:19:50.152Z,4.05
2017-10-04T07:20:23.877Z,4.93
2017-10-04T07:20:57.576Z,3.70
2017-10-04T07:21:32.032Z,3.17
2017-10-04T07:22:05.757Z,4.05
2017-10-04T07:22:40.221Z,3.60
2017-10-04T07:23:13.934Z,3.70
2017-10-04T07:23:47.652Z,4.30
2017-10-04T07:24:21.748Z,4.22
2017-10-04T07:24:56.219Z,3.40
2017-10-04T07:25:29.929Z,3.72
2017-10-04T07:26:03.645Z,3.62
2017-10-04T07:26:37.381Z,3.58
2017-10-04T07:27:11.100Z,4.20
2017-10-04T07:27:44.808Z,4.20
2017-10-04T07:28:19.288Z,3.28
2017-10-04T07:28:53.096Z,3.45
2017-10-04T07:29:27.204Z,3.95
2017-10-04T07:30:01.676Z,3.55
2017-10-04T07:30:35.394Z,3.42
2017-10-04T07:31:10.038Z,4.37
2017-10-04T07:31:43.743Z,3.45
2017-10-04T07:32:17.469Z,3.85
2017-10-04T07:32:51.185Z,4.12